createdAt,value
2022-10-19T00:00:01.503Z,22.35
2022-10-19T00:02:31.277Z,19.30
2022-10-19T00:05:01.073Z,20.95
2022-10-19T00:07:33.556Z,24.60
2022-10-19T00:10:03.444Z,23.60
2022-10-19T00:12:33.461Z,27.45
2022-10-19T00:15:03.518Z,19.95
2022-10-19T00:17:33.503Z,20.52
2022-10-19T00:20:03.371Z,24.15
2022-10-19T00:22:36.024Z,25.02
2022-10-19T00:25:06.043Z,22.25
2022-10-19T00:27:35.778Z,20.02
2022-10-19T00:30:05.761Z,23.17
2022-10-19T00:32:35.729Z,20.40
2022-10-19T00:35:05.590Z,20.02
2022-10-19T00:37:37.929Z,21.58
2022-10-19T00:40:09.104Z,23.98
2022-10-19T00:42:38.819Z,25.77
2022-10-19T00:45:15.381Z,41.85
2022-10-19T00:47:46.312Z,41.95
2022-10-19T00:50:17.778Z,91.35
2022-10-19T00:52:50.263Z,113.47
2022-10-19T00:55:20.156Z,173.52
2022-10-19T01:00:40.876Z,234.70
2022-10-19T01:03:12.274Z,122.80
2022-10-19T01:05:42.462Z,144.73
2022-10-19T01:08:14.945Z,157.68
2022-10-19T01:10:55.118Z,216.05
2022-10-19T01:13:35.369Z,258.23
2022-10-19T01:16:10.040Z,60.92
2022-10-19T01:18:47.177Z,67.43
2022-10-19T01:21:26.247Z,204.30
2022-10-19T01:24:25.072Z,237.18
2022-10-19T01:27:30.498Z,137.50
2022-10-19T01:30:08.167Z,251.88
2022-10-19T01:32:50.925Z,125.28
2022-10-19T01:35:28.742Z,113.68
2022-10-19T01:38:07.592Z,169.73
2022-10-19T01:40:45.506Z,140.65
2022-10-19T01:43:24.008Z,247.02
2022-10-19T01:46:00.186Z,156.48
2022-10-19T01:48:34.776Z,165.50
2022-10-19T01:51:08.721Z,127.75
2022-10-19T01:53:43.743Z,183.18
2022-10-19T01:56:15.090Z,154.18
2022-10-19T01:58:46.858Z,122.97
2022-10-19T02:01:22.104Z,84.20
2022-10-19T02:03:52.848Z,70.13
2022-10-19T02:06:23.700Z,73.82
2022-10-19T02:08:56.506Z,44.75
2022-10-19T02:11:26.778Z,44.67
2022-10-19T02:14:02.740Z,38.17
2022-10-19T02:16:40.904Z,38.17
2022-10-19T02:19:12.558Z,37.58
2022-10-19T02:21:42.884Z,31.58
2022-10-19T02:24:12.698Z,32.60
2022-10-19T02:26:43.183Z,31.63
2022-10-19T02:29:16.586Z,31.00
2022-10-19T02:31:49.203Z,29.43
2022-10-19T02:34:19.055Z,30.65
2022-10-19T02:36:48.859Z,27.55
2022-10-19T02:39:19.027Z,24.50
2022-10-19T02:41:54.272Z,27.50
2022-10-19T02:44:28.765Z,22.75
2022-10-19T02:47:05.923Z,21.95
2022-10-19T02:49:39.230Z,25.35
2022-10-19T02:52:11.506Z,22.02
2022-10-19T02:54:43.145Z,21.70
2022-10-19T02:57:19.481Z,24.60
2022-10-19T02:59:49.818Z,21.50
2022-10-19T03:02:23.695Z,19.63
2022-10-19T03:04:53.426Z,20.23
2022-10-19T03:07:24.162Z,20.52
2022-10-19T03:09:54.221Z,23.90
2022-10-19T03:12:23.930Z,21.95
2022-10-19T03:14:53.717Z,19.52
2022-10-19T03:17:26.015Z,20.85
2022-10-19T03:19:55.733Z,21.52
2022-10-19T03:22:25.491Z,19.52
2022-10-19T03:24:55.165Z,23.00
2022-10-19T03:27:24.888Z,21.63
2022-10-19T03:29:54.595Z,24.58
2022-10-19T03:32:26.996Z,21.30
2022-10-19T03:34:56.683Z,20.13
2022-10-19T03:37:26.382Z,16.70
2022-10-19T03:39:56.081Z,24.38
2022-10-19T03:42:25.794Z,25.00
2022-10-19T03:44:55.503Z,24.55
2022-10-19T03:47:27.861Z,30.50
2022-10-19T03:49:57.565Z,37.13
2022-10-19T03:52:27.266Z,41.38
2022-10-19T03:54:56.979Z,48.50
2022-10-19T03:57:26.696Z,47.17
2022-10-19T03:59:56.396Z,40.72
2022-10-19T04:02:28.779Z,38.50
2022-10-19T04:04:58.485Z,60.30
2022-10-19T04:07:28.275Z,45.35
2022-10-19T04:09:58.016Z,59.38
2022-10-19T04:12:27.810Z,117.15
2022-10-19T04:14:58.004Z,117.80
2022-10-19T04:17:31.000Z,135.35
2022-10-19T04:20:00.862Z,99.20
2022-10-19T04:22:30.593Z,71.43
2022-10-19T04:25:00.307Z,65.95
2022-10-19T04:27:30.018Z,87.93
2022-10-19T04:29:59.691Z,259.48
2022-10-19T04:32:31.977Z,150.35
2022-10-19T04:35:01.668Z,259.13
2022-10-19T04:37:31.758Z,105.55
2022-10-19T04:40:01.761Z,146.88
2022-10-19T04:42:31.480Z,67.15
2022-10-19T04:45:01.185Z,165.68
2022-10-19T04:47:34.553Z,131.93
2022-10-19T04:50:04.578Z,102.97
2022-10-19T04:52:35.264Z,145.15
2022-10-19T04:55:05.021Z,107.15
2022-10-19T04:57:35.110Z,90.25
2022-10-19T05:00:05.699Z,61.42
2022-10-19T05:02:38.069Z,49.50
2022-10-19T05:05:08.829Z,92.80
2022-10-19T05:07:38.744Z,68.60
2022-10-19T05:10:10.397Z,117.07
2022-10-19T05:12:40.166Z,171.70
2022-10-19T05:15:11.532Z,126.60
2022-10-19T05:17:43.836Z,83.95
2022-10-19T05:20:14.198Z,61.72
2022-10-19T05:22:43.975Z,82.65
2022-10-19T05:25:13.761Z,174.05
2022-10-19T05:27:43.534Z,164.55
2022-10-19T05:30:14.522Z,145.82
2022-10-19T05:32:46.828Z,120.10
2022-10-19T05:35:18.756Z,39.80
2022-10-19T05:37:51.354Z,134.57
2022-10-19T05:40:21.043Z,252.95
2022-10-19T05:42:50.747Z,155.40
2022-10-19T05:45:20.512Z,424.05
2022-10-19T05:47:52.814Z,331.92
2022-10-19T05:50:22.509Z,343.55
2022-10-19T05:52:52.266Z,345.92
2022-10-19T05:55:22.031Z,193.45
2022-10-19T05:57:52.478Z,173.05
2022-10-19T06:00:22.451Z,63.63
2022-10-19T06:02:59.042Z,37.33
2022-10-19T06:05:29.060Z,44.42
2022-10-19T06:07:58.780Z,55.75
2022-10-19T06:10:28.584Z,31.60
2022-10-19T06:12:58.379Z,30.42
2022-10-19T06:15:28.298Z,33.75
2022-10-19T06:18:00.580Z,31.50
2022-10-19T06:20:30.289Z,25.65
2022-10-19T06:23:00.032Z,29.55
2022-10-19T06:25:29.755Z,28.77
2022-10-19T06:27:59.560Z,34.30
2022-10-19T06:30:29.895Z,30.73
2022-10-19T06:35:33.659Z,27.38
2022-10-19T06:38:03.665Z,21.27
2022-10-19T06:40:33.936Z,23.58
2022-10-19T06:43:03.727Z,20.08
2022-10-19T06:45:36.048Z,23.40
2022-10-19T06:48:09.138Z,20.85
2022-10-19T06:50:38.933Z,18.25
2022-10-19T06:53:08.647Z,21.20
2022-10-19T06:55:39.248Z,19.58
2022-10-19T06:58:08.947Z,17.25
2022-10-19T07:00:38.722Z,19.67
2022-10-19T07:03:11.122Z,17.08
2022-10-19T07:05:40.852Z,16.50
2022-10-19T07:08:10.652Z,17.42
2022-10-19T07:10:40.410Z,16.73
2022-10-19T07:15:39.853Z,16.08
2022-10-19T07:18:12.183Z,14.73
2022-10-19T07:20:41.947Z,15.38
2022-10-19T07:23:11.839Z,16.40
2022-10-19T07:25:41.558Z,18.08
2022-10-19T07:28:11.355Z,15.73
2022-10-19T07:30:41.478Z,14.90
2022-10-19T07:33:13.857Z,17.95
2022-10-19T07:35:43.623Z,16.50
2022-10-19T07:38:13.332Z,16.65
2022-10-19T07:40:46.389Z,14.15
2022-10-19T07:43:17.227Z,17.55
2022-10-19T07:45:46.926Z,13.20
2022-10-19T07:48:19.306Z,16.10
2022-10-19T07:50:50.788Z,14.07
2022-10-19T07:53:20.488Z,13.85
2022-10-19T07:55:50.182Z,16.45
2022-10-19T07:58:19.989Z,19.33
2022-10-19T08:00:49.728Z,16.27
2022-10-19T08:06:13.960Z,13.88
2022-10-19T08:08:43.873Z,15.63
2022-10-19T08:11:16.295Z,16.10
2022-10-19T08:13:46.371Z,14.55
2022-10-19T08:16:27.940Z,12.00
2022-10-19T08:19:03.463Z,14.63
2022-10-19T08:21:33.788Z,14.35
2022-10-19T08:24:03.868Z,14.57
2022-10-19T08:26:35.511Z,15.52
2022-10-19T08:29:07.990Z,22.92
2022-10-19T08:31:38.029Z,16.25
2022-10-19T08:34:10.838Z,16.00
2022-10-19T08:39:30.480Z,17.83
2022-10-19T08:42:04.866Z,26.52
2022-10-19T08:47:40.110Z,19.65
2022-10-19T08:50:21.351Z,18.40
2022-10-19T08:52:57.191Z,19.15
2022-10-19T08:55:36.114Z,17.25
2022-10-19T08:58:19.016Z,16.60
2022-10-19T09:00:55.216Z,16.48
2022-10-19T09:03:44.014Z,15.85
2022-10-19T09:06:27.063Z,20.33
2022-10-19T09:09:00.038Z,18.75
2022-10-19T09:11:33.731Z,18.63
2022-10-19T09:14:08.153Z,18.98
2022-10-19T09:19:15.625Z,17.10
2022-10-19T09:21:53.548Z,20.08
2022-10-19T09:24:41.531Z,17.27
2022-10-19T09:27:20.947Z,18.83
2022-10-19T09:29:56.580Z,17.98
2022-10-19T09:32:31.213Z,19.20
2022-10-19T09:35:04.130Z,15.45
2022-10-19T09:37:44.909Z,12.18
2022-10-19T09:40:19.696Z,14.50
2022-10-19T09:42:56.702Z,15.05
2022-10-19T09:45:39.058Z,14.52
2022-10-19T09:48:19.546Z,11.02
2022-10-19T09:50:56.981Z,11.07
2022-10-19T09:53:30.857Z,7.50
2022-10-19T09:56:03.286Z,6.25
2022-10-19T09:58:33.529Z,10.63
2022-10-19T10:01:04.997Z,7.18
2022-10-19T10:03:39.390Z,5.75
2022-10-19T10:08:49.631Z,8.50
2022-10-19T10:11:26.877Z,9.15
2022-10-19T10:13:58.276Z,9.13
2022-10-19T10:16:33.735Z,6.65
2022-10-19T10:19:06.944Z,5.88
2022-10-19T10:21:48.057Z,5.43
2022-10-19T10:24:23.593Z,5.72
2022-10-19T10:26:55.681Z,5.80
2022-10-19T10:29:27.636Z,7.93
2022-10-19T10:32:01.562Z,3.83
2022-10-19T10:34:46.055Z,5.85
2022-10-19T10:37:23.032Z,8.10
2022-10-19T10:40:01.769Z,7.13
2022-10-19T10:42:39.211Z,5.32
2022-10-19T10:45:20.327Z,6.53
2022-10-19T10:47:50.976Z,6.13
2022-10-19T10:50:25.584Z,4.10
2022-10-19T10:53:03.588Z,5.50
2022-10-19T10:55:37.161Z,6.60
2022-10-19T10:58:17.599Z,5.18
2022-10-19T11:00:48.063Z,4.22
2022-10-19T11:03:23.915Z,3.25
2022-10-19T11:05:59.878Z,4.70
2022-10-19T11:08:34.569Z,7.25
2022-10-19T11:11:15.747Z,5.45
2022-10-19T11:13:51.378Z,4.82
2022-10-19T11:16:24.562Z,4.57
2022-10-19T11:19:00.694Z,4.25
2022-10-19T11:21:38.550Z,5.55
2022-10-19T11:24:18.741Z,7.75
2022-10-19T11:27:05.302Z,6.80
2022-10-19T11:29:51.696Z,3.60
2022-10-19T11:32:29.433Z,5.75
2022-10-19T11:35:14.932Z,4.07
2022-10-19T11:38:18.062Z,4.30
2022-10-19T11:41:13.243Z,5.97
2022-10-19T11:43:56.125Z,5.72
2022-10-19T11:46:32.334Z,5.85
2022-10-19T11:49:21.038Z,5.40
2022-10-19T11:51:58.583Z,6.88
2022-10-19T11:54:41.370Z,5.13
2022-10-19T11:57:18.740Z,4.97
2022-10-19T12:00:15.061Z,4.63
2022-10-19T12:03:22.681Z,5.60
2022-10-19T12:06:10.953Z,6.20
2022-10-19T12:08:59.872Z,3.75
2022-10-19T12:11:40.300Z,5.18
2022-10-19T12:14:16.106Z,4.28
2022-10-19T12:16:52.323Z,4.07
2022-10-19T12:19:26.911Z,3.88
2022-10-19T12:21:59.427Z,4.93
2022-10-19T12:24:31.929Z,8.07
2022-10-19T12:27:03.255Z,2.80
2022-10-19T12:29:36.592Z,3.33
2022-10-19T12:32:10.050Z,3.67
2022-10-19T12:34:47.258Z,4.18
2022-10-19T12:37:26.436Z,4.00
2022-10-19T12:40:03.414Z,5.40
2022-10-19T12:42:40.025Z,6.97
2022-10-19T12:45:19.677Z,3.55
2022-10-19T12:48:25.630Z,4.72
2022-10-19T12:51:11.978Z,4.57
2022-10-19T12:53:44.279Z,4.05
2022-10-19T12:56:19.847Z,6.15
2022-10-19T12:58:56.899Z,4.55
2022-10-19T13:01:30.048Z,6.30
2022-10-19T13:04:15.275Z,5.20
2022-10-19T13:06:50.156Z,3.20
2022-10-19T13:09:27.303Z,4.43
2022-10-19T13:12:27.195Z,4.68
2022-10-19T13:14:59.051Z,6.75
2022-10-19T13:17:44.121Z,4.38
2022-10-19T13:20:50.642Z,4.95
2022-10-19T13:23:45.395Z,5.47
2022-10-19T13:26:35.641Z,9.60
2022-10-19T13:29:05.397Z,4.68
2022-10-19T13:31:37.477Z,7.93
2022-10-19T13:34:13.097Z,4.38
2022-10-19T13:37:02.620Z,8.90
2022-10-19T13:39:41.463Z,4.80
2022-10-19T13:42:26.384Z,3.88
2022-10-19T13:44:56.399Z,6.18
2022-10-19T13:47:39.306Z,4.07
2022-10-19T13:50:30.148Z,5.40
2022-10-19T13:53:27.295Z,4.22
2022-10-19T13:56:33.054Z,4.65
2022-10-19T13:59:27.823Z,6.43
2022-10-19T14:02:23.935Z,6.22
2022-10-19T14:05:09.358Z,4.68
2022-10-19T14:07:48.462Z,6.63
2022-10-19T14:10:22.719Z,6.18
2022-10-19T14:13:01.386Z,3.03
2022-10-19T14:15:33.595Z,5.45
2022-10-19T14:18:05.815Z,6.07
2022-10-19T14:20:38.153Z,3.15
2022-10-19T14:23:30.051Z,3.45
2022-10-19T14:26:03.365Z,3.85
2022-10-19T14:28:36.324Z,3.97
2022-10-19T14:31:10.552Z,3.22
2022-10-19T14:36:19.403Z,5.65
2022-10-19T14:38:51.265Z,4.32
2022-10-19T14:41:23.588Z,5.43
2022-10-19T14:43:58.294Z,2.72
2022-10-19T14:46:31.314Z,2.92
2022-10-19T14:49:06.510Z,3.55
2022-10-19T14:51:42.895Z,5.57
2022-10-19T14:54:28.976Z,5.70
2022-10-19T14:57:03.195Z,5.18
2022-10-19T15:02:16.542Z,3.65
2022-10-19T15:04:46.419Z,3.60
2022-10-19T15:07:21.395Z,11.95
2022-10-19T15:09:55.455Z,3.75
2022-10-19T15:12:31.164Z,3.13
2022-10-19T15:15:03.704Z,4.72
2022-10-19T15:17:36.102Z,7.68
2022-10-19T15:20:26.048Z,5.93
2022-10-19T15:22:55.856Z,3.65
2022-10-19T15:25:36.954Z,5.68
2022-10-19T15:28:23.673Z,4.03
2022-10-19T15:31:08.025Z,4.13
2022-10-19T15:33:41.921Z,5.65
2022-10-19T15:36:17.343Z,5.03
2022-10-19T15:38:48.551Z,4.35
2022-10-19T15:41:24.275Z,5.38
2022-10-19T15:43:56.638Z,4.25
2022-10-19T15:46:31.647Z,5.25
2022-10-19T15:49:04.522Z,7.00
2022-10-19T15:51:46.298Z,5.97
2022-10-19T15:54:19.097Z,5.45
2022-10-19T15:56:50.357Z,10.75
2022-10-19T15:59:21.816Z,5.75
2022-10-19T16:01:56.170Z,6.15
2022-10-19T16:04:26.201Z,5.80
2022-10-19T16:06:55.989Z,5.50
2022-10-19T16:09:25.738Z,7.05
2022-10-19T16:11:57.241Z,5.57
2022-10-19T16:14:28.369Z,9.00
2022-10-19T16:17:00.690Z,7.07
2022-10-19T16:19:30.520Z,8.00
2022-10-19T16:22:00.308Z,7.53
2022-10-19T16:24:30.065Z,9.43
2022-10-19T16:26:59.805Z,7.05
2022-10-19T16:29:29.704Z,10.48
2022-10-19T16:32:02.345Z,7.78
2022-10-19T16:34:32.237Z,6.80
2022-10-19T16:37:04.263Z,6.93
2022-10-19T16:39:36.669Z,6.88
2022-10-19T16:42:06.852Z,7.07
2022-10-19T16:44:36.922Z,10.07
2022-10-19T16:47:09.284Z,13.80
2022-10-19T16:49:39.166Z,8.02
2022-10-19T16:52:08.987Z,6.78
2022-10-19T16:54:39.043Z,10.10
2022-10-19T16:57:11.464Z,6.82
2022-10-19T16:59:41.251Z,7.03
2022-10-19T17:02:14.210Z,9.40
2022-10-19T17:04:43.942Z,8.63
2022-10-19T17:07:14.166Z,8.68
2022-10-19T17:09:44.408Z,9.63
2022-10-19T17:12:14.775Z,9.23
2022-10-19T17:14:45.769Z,10.20
2022-10-19T17:17:18.108Z,9.70
2022-10-19T17:19:48.739Z,10.57
2022-10-19T17:22:18.585Z,8.70
2022-10-19T17:24:48.901Z,10.32
2022-10-19T17:27:18.832Z,9.30
2022-10-19T17:29:48.709Z,8.90
2022-10-19T17:32:21.027Z,12.20
2022-10-19T17:34:50.903Z,10.63
2022-10-19T17:37:20.622Z,10.20
2022-10-19T17:39:53.492Z,14.27
2022-10-19T17:42:23.244Z,9.82
2022-10-19T17:44:53.043Z,10.23
2022-10-19T17:47:25.376Z,9.70
2022-10-19T17:49:55.152Z,10.35
2022-10-19T17:52:24.923Z,10.65
2022-10-19T17:55:13.303Z,11.82
2022-10-19T17:57:43.361Z,11.15
2022-10-19T18:00:14.224Z,11.05
2022-10-19T18:02:47.516Z,13.80
2022-10-19T18:05:17.499Z,12.05
2022-10-19T18:07:49.203Z,13.52
2022-10-19T18:10:19.091Z,12.07
2022-10-19T18:12:48.852Z,15.60
2022-10-19T18:15:18.771Z,13.10
2022-10-19T18:17:51.104Z,12.13
2022-10-19T18:20:21.023Z,16.00
2022-10-19T18:22:50.763Z,13.70
2022-10-19T18:25:25.950Z,14.45
2022-10-19T18:28:06.183Z,18.58
2022-10-19T18:30:39.133Z,17.90
2022-10-19T18:33:11.933Z,13.68
2022-10-19T18:35:42.838Z,14.95
2022-10-19T18:38:12.607Z,13.15
2022-10-19T18:40:42.494Z,12.65
2022-10-19T18:43:12.280Z,14.05
2022-10-19T18:45:42.250Z,15.15
2022-10-19T18:48:14.897Z,16.60
2022-10-19T18:50:47.195Z,13.00
2022-10-19T18:53:16.947Z,14.27
2022-10-19T18:55:47.452Z,15.40
2022-10-19T18:58:17.189Z,14.57
2022-10-19T19:00:46.937Z,20.35
2022-10-19T19:03:20.569Z,15.05
2022-10-19T19:05:50.353Z,14.68
2022-10-19T19:08:20.072Z,18.40
2022-10-19T19:10:49.792Z,13.63
2022-10-19T19:13:19.567Z,13.82
2022-10-19T19:15:59.024Z,19.77
2022-10-19T19:18:33.699Z,16.45
2022-10-19T19:21:03.590Z,14.52
2022-10-19T19:23:33.416Z,14.88
2022-10-19T19:26:06.267Z,20.15
2022-10-19T19:28:39.153Z,15.82
2022-10-19T19:31:15.287Z,16.80
2022-10-19T19:33:48.719Z,15.55
2022-10-19T19:36:20.913Z,18.57
2022-10-19T19:38:53.790Z,15.63
2022-10-19T19:41:23.821Z,17.98
2022-10-19T19:43:53.676Z,18.73
2022-10-19T19:46:23.708Z,14.98
2022-10-19T19:49:01.399Z,14.77
2022-10-19T19:51:33.017Z,14.55
2022-10-19T19:54:02.994Z,15.48
2022-10-19T19:56:32.890Z,17.40
2022-10-19T19:59:03.833Z,18.73
2022-10-19T20:01:35.877Z,19.10
2022-10-19T20:04:09.118Z,15.57
2022-10-19T20:06:40.705Z,15.15
2022-10-19T20:09:11.263Z,19.98
2022-10-19T20:11:42.894Z,16.48
2022-10-19T20:14:13.172Z,19.85
2022-10-19T20:16:43.471Z,16.65
2022-10-19T20:19:16.726Z,16.33
2022-10-19T20:21:46.487Z,17.73
2022-10-19T20:24:16.263Z,19.42
2022-10-19T20:26:46.059Z,19.73
2022-10-19T20:29:15.804Z,15.15
2022-10-19T20:31:45.631Z,16.58
2022-10-19T20:34:23.158Z,18.15
2022-10-19T20:36:53.634Z,14.35
2022-10-19T20:39:23.364Z,15.30
2022-10-19T20:41:53.074Z,17.08
2022-10-19T20:44:22.991Z,19.13
2022-10-19T20:46:52.962Z,15.68
2022-10-19T20:49:25.494Z,18.70
2022-10-19T20:51:56.714Z,15.90
2022-10-19T20:54:26.546Z,16.27
2022-10-19T20:56:56.266Z,18.75
2022-10-19T20:59:27.823Z,18.05
2022-10-19T21:01:59.787Z,15.90
2022-10-19T21:04:32.181Z,18.05
2022-10-19T21:07:04.386Z,16.48
2022-10-19T21:09:34.343Z,16.75
2022-10-19T21:12:04.236Z,18.48
2022-10-19T21:14:34.091Z,15.18
2022-10-19T21:17:03.883Z,18.65
2022-10-19T21:19:36.355Z,21.60
2022-10-19T21:22:06.404Z,18.20
2022-10-19T21:24:39.595Z,22.70
2022-10-19T21:27:11.132Z,14.23
2022-10-19T21:29:41.109Z,16.70
2022-10-19T21:32:11.093Z,18.17
2022-10-19T21:34:43.438Z,18.77
2022-10-19T21:37:13.261Z,18.50
2022-10-19T21:39:43.261Z,15.63
2022-10-19T21:42:13.031Z,17.10
2022-10-19T21:44:42.801Z,15.20
2022-10-19T21:47:12.733Z,19.10
2022-10-19T21:49:45.086Z,16.48
2022-10-19T21:52:16.186Z,18.83
2022-10-19T21:54:46.025Z,20.60
2022-10-19T21:57:15.862Z,20.58
2022-10-19T21:59:45.779Z,17.75
2022-10-19T22:02:15.544Z,17.83
2022-10-19T22:04:47.878Z,18.80
2022-10-19T22:07:17.829Z,15.88
2022-10-19T22:09:47.681Z,16.08
2022-10-19T22:12:17.446Z,14.55
2022-10-19T22:14:47.402Z,16.52
2022-10-19T22:17:17.140Z,16.23
2022-10-19T22:19:49.511Z,15.65
2022-10-19T22:22:19.285Z,15.27
2022-10-19T22:24:49.118Z,16.77
2022-10-19T22:27:18.923Z,19.40
2022-10-19T22:29:48.694Z,18.77
2022-10-19T22:32:18.515Z,16.95
2022-10-19T22:34:51.016Z,16.15
2022-10-19T22:37:20.773Z,18.40
2022-10-19T22:39:50.523Z,18.02
2022-10-19T22:42:26.841Z,17.00
2022-10-19T22:44:56.839Z,15.77
2022-10-19T22:47:26.561Z,16.17
2022-10-19T22:49:58.876Z,18.90
2022-10-19T22:52:28.634Z,15.63
2022-10-19T22:54:58.345Z,18.73
2022-10-19T22:57:28.175Z,18.58
2022-10-19T22:59:57.925Z,20.70
2022-10-19T23:02:27.747Z,18.83
2022-10-19T23:05:00.082Z,19.27
2022-10-19T23:07:29.789Z,16.88
2022-10-19T23:09:59.504Z,20.20
2022-10-19T23:12:29.207Z,16.00
2022-10-19T23:14:58.996Z,15.57
2022-10-19T23:17:28.730Z,15.40
2022-10-19T23:20:01.034Z,16.15
2022-10-19T23:22:30.762Z,18.55
2022-10-19T23:25:00.511Z,15.30
2022-10-19T23:27:30.252Z,17.55
2022-10-19T23:29:59.999Z,14.35
2022-10-19T23:32:29.816Z,22.00
2022-10-19T23:35:02.084Z,18.67
2022-10-19T23:37:31.869Z,15.55
2022-10-19T23:40:01.600Z,19.17
2022-10-19T23:42:31.400Z,17.08
2022-10-19T23:45:01.110Z,17.73
2022-10-19T23:47:31.234Z,18.23
2022-10-19T23:50:03.540Z,14.32
2022-10-19T23:52:33.287Z,16.00
2022-10-19T23:55:03.023Z,16.95
2022-10-19T23:57:32.944Z,21.10
